sensor_id;sensor_type;location;lat;lon;timestamp;pressure;altitude;pressure_sealevel;temperature;humidity
65756;BME280;69208;47.502;18.940;2023-05-19T00:00:42;98794.44;;;11.66;100.00
65756;BME280;69208;47.502;18.940;2023-05-19T00:01:52;98785.19;;;11.68;100.00
65756;BME280;69208;47.502;18.940;2023-05-19T00:02:56;98792.03;;;11.69;100.00
65756;BME280;69208;47.502;18.940;2023-05-19T00:04:00;98793.22;;;11.58;100.00
65756;BME280;69208;47.502;18.940;2023-05-19T00:05:07;98790.53;;;11.63;100.00
65756;BME280;69208;47.502;18.940;2023-05-19T00:06:12;98792.28;;;11.68;100.00
65756;BME280;69208;47.502;18.940;2023-05-19T00:07:18;98796.25;;;11.65;100.00
65756;BME280;69208;47.502;18.940;2023-05-19T00:08:22;98790.53;;;11.63;100.00
65756;BME280;69208;47.502;18.940;2023-05-19T00:09:26;98793.88;;;11.69;100.00
65756;BME280;69208;47.502;18.940;2023-05-19T00:10:29;98790.78;;;11.61;100.00
65756;BME280;69208;47.502;18.940;2023-05-19T00:11:37;98794.19;;;11.62;100.00
65756;BME280;69208;47.502;18.940;2023-05-19T00:12:40;98796.00;;;11.67;100.00
65756;BME280;69208;47.502;18.940;2023-05-19T00:13:45;98797.78;;;11.71;100.00
65756;BME280;69208;47.502;18.940;2023-05-19T00:14:51;98790.31;;;11.59;100.00
65756;BME280;69208;47.502;18.940;2023-05-19T00:15:54;98786.03;;;11.45;100.00
65756;BME280;69208;47.502;18.940;2023-05-19T00:16:58;98780.28;;;11.43;100.00
65756;BME280;69208;47.502;18.940;2023-05-19T00:18:03;98788.78;;;11.53;100.00
65756;BME280;69208;47.502;18.940;2023-05-19T00:19:06;98784.91;;;11.51;100.00
65756;BME280;69208;47.502;18.940;2023-05-19T00:20:13;98777.47;;;11.58;100.00
65756;BME280;69208;47.502;18.940;2023-05-19T00:21:17;98780.50;;;11.65;100.00
65756;BME280;69208;47.502;18.940;2023-05-19T00:22:20;98784.16;;;11.69;100.00
65756;BME280;69208;47.502;18.940;2023-05-19T00:23:23;98785.28;;;11.63;100.00
65756;BME280;69208;47.502;18.940;2023-05-19T00:24:25;98782.03;;;11.71;100.00
65756;BME280;69208;47.502;18.940;2023-05-19T00:25:28;98781.00;;;11.67;100.00
65756;BME280;69208;47.502;18.940;2023-05-19T00:26:31;98779.09;;;11.73;100.00
65756;BME280;69208;47.502;18.940;2023-05-19T00:27:34;98782.94;;;11.61;100.00
65756;BME280;69208;47.502;18.940;2023-05-19T00:28:37;98791.66;;;11.57;100.00
65756;BME280;69208;47.502;18.940;2023-05-19T00:29:40;98785.41;;;11.53;100.00
65756;BME280;69208;47.502;18.940;2023-05-19T00:30:43;98781.78;;;11.49;100.00
65756;BME280;69208;47.502;18.940;2023-05-19T00:31:46;98776.81;;;11.47;100.00
65756;BME280;69208;47.502;18.940;2023-05-19T00:32:49;98781.34;;;11.42;100.00
65756;BME280;69208;47.502;18.940;2023-05-19T00:33:52;98781.69;;;11.35;100.00
65756;BME280;69208;47.502;18.940;2023-05-19T00:34:55;98779.06;;;11.35;100.00
65756;BME280;69208;47.502;18.940;2023-05-19T00:36:02;98773.03;;;11.34;100.00
65756;BME280;69208;47.502;18.940;2023-05-19T00:37:05;98780.66;;;11.36;100.00
65756;BME280;69208;47.502;18.940;2023-05-19T00:38:08;98772.78;;;11.36;100.00
65756;BME280;69208;47.502;18.940;2023-05-19T00:39:11;98776.25;;;11.50;100.00
65756;BME280;69208;47.502;18.940;2023-05-19T00:40:14;98774.75;;;11.44;100.00
65756;BME280;69208;47.502;18.940;2023-05-19T00:41:17;98772.13;;;11.44;100.00
65756;BME280;69208;47.502;18.940;2023-05-19T00:42:21;98769.66;;;11.53;100.00
65756;BME280;69208;47.502;18.940;2023-05-19T00:43:24;98772.72;;;11.60;100.00
65756;BME280;69208;47.502;18.940;2023-05-19T00:44:26;98776.63;;;11.63;100.00
65756;BME280;69208;47.502;18.940;2023-05-19T00:45:29;98769.88;;;11.56;100.00
65756;BME280;69208;47.502;18.940;2023-05-19T00:46:33;98778.19;;;11.64;100.00
65756;BME280;69208;47.502;18.940;2023-05-19T00:47:36;98773.84;;;11.54;100.00
65756;BME280;69208;47.502;18.940;2023-05-19T00:48:39;98772.81;;;11.31;100.00
65756;BME280;69208;47.502;18.940;2023-05-19T00:49:41;98779.50;;;11.42;100.00
65756;BME280;69208;47.502;18.940;2023-05-19T00:50:44;98778.94;;;11.45;100.00
65756;BME280;69208;47.502;18.940;2023-05-19T00:51:48;98776.31;;;11.45;100.00
65756;BME280;69208;47.502;18.940;2023-05-19T00:52:51;98770.22;;;11.50;100.00
65756;BME280;69208;47.502;18.940;2023-05-19T00:53:54;98768.09;;;11.52;100.00
65756;BME280;69208;47.502;18.940;2023-05-19T00:54:58;98771.34;;;11.44;100.00
65756;BME280;69208;47.502;18.940;2023-05-19T00:56:02;98774.31;;;11.37;100.00
65756;BME280;69208;47.502;18.940;2023-05-19T00:57:05;98774.53;;;11.41;100.00
65756;BME280;69208;47.502;18.940;2023-05-19T00:58:09;98771.50;;;11.33;100.00
65756;BME280;69208;47.502;18.940;2023-05-19T00:59:13;98776.66;;;11.38;100.00
65756;BME280;69208;47.502;18.940;2023-05-19T01:00:16;98772.22;;;11.39;100.00
65756;BME280;69208;47.502;18.940;2023-05-19T01:01:19;98770.62;;;11.38;100.00
65756;BME280;69208;47.502;18.940;2023-05-19T01:02:23;98770.38;;;11.39;100.00
65756;BME280;69208;47.502;18.940;2023-05-19T01:03:26;98773.63;;;11.50;100.00
65756;BME280;69208;47.502;18.940;2023-05-19T01:04:35;98774.84;;;11.58;100.00
65756;BME280;69208;47.502;18.940;2023-05-19T01:05:39;98776.34;;;11.64;100.00
65756;BME280;69208;47.502;18.940;2023-05-19T01:06:51;98774.00;;;11.63;100.00
65756;BME280;69208;47.502;18.940;2023-05-19T01:07:56;98773.56;;;11.55;100.00
65756;BME280;69208;47.502;18.940;2023-05-19T01:08:59;98775.47;;;11.50;100.00
65756;BME280;69208;47.502;18.940;2023-05-19T01:10:02;98773.47;;;11.42;100.00
65756;BME280;69208;47.502;18.940;2023-05-19T01:11:07;98772.78;;;11.36;100.00
65756;BME280;69208;47.502;18.940;2023-05-19T01:12:10;98772.78;;;11.36;100.00
65756;BME280;69208;47.502;18.940;2023-05-19T01:13:13;98773.59;;;11.31;100.00
65756;BME280;69208;47.502;18.940;2023-05-19T01:14:17;98766.47;;;11.37;100.00
65756;BME280;69208;47.502;18.940;2023-05-19T01:15:21;98770.84;;;11.42;100.00
65756;BME280;69208;47.502;18.940;2023-05-19T01:16:39;98769.81;;;11.43;100.00
65756;BME280;69208;47.502;18.940;2023-05-19T01:20:23;98763.47;;;11.44;100.00
65756;BME280;69208;47.502;18.940;2023-05-19T01:23:17;98762.91;;;11.47;100.00
65756;BME280;69208;47.502;18.940;2023-05-19T01:24:30;98763.38;;;11.54;100.00
65756;BME280;69208;47.502;18.940;2023-05-19T01:26:44;98779.16;;;11.49;100.00
65756;BME280;69208;47.502;18.940;2023-05-19T01:29:31;98776.81;;;11.47;100.00
65756;BME280;69208;47.502;18.940;2023-05-19T01:30:40;98775.88;;;11.38;100.00
65756;BME280;69208;47.502;18.940;2023-05-19T01:31:45;98781.91;;;11.38;100.00
65756;BME280;69208;47.502;18.940;2023-05-19T01:32:50;98772.69;;;11.41;100.00
65756;BME280;69208;47.502;18.940;2023-05-19T01:33:55;98774.28;;;11.42;100.00
65756;BME280;69208;47.502;18.940;2023-05-19T01:34:59;98766.72;;;11.35;100.00
65756;BME280;69208;47.502;18.940;2023-05-19T01:36:05;98778.50;;;11.38;100.00
65756;BME280;69208;47.502;18.940;2023-05-19T01:37:10;98778.03;;;11.36;100.00
65756;BME280;69208;47.502;18.940;2023-05-19T01:38:16;98779.16;;;11.30;100.00
65756;BME280;69208;47.502;18.940;2023-05-19T01:39:20;98775.72;;;11.29;100.00
65756;BME280;69208;47.502;18.940;2023-05-19T01:40:24;98777.88;;;11.27;100.00
65756;BME280;69208;47.502;18.940;2023-05-19T01:41:29;98772.63;;;11.27;100.00
65756;BME280;69208;47.502;18.940;2023-05-19T01:42:34;98780.13;;;11.34;100.00
65756;BME280;69208;47.502;18.940;2023-05-19T01:43:41;98784.81;;;11.37;100.00
65756;BME280;69208;47.502;18.940;2023-05-19T01:44:45;98780.13;;;11.34;100.00
65756;BME280;69208;47.502;18.940;2023-05-19T01:45:49;98781.31;;;11.23;100.00
65756;BME280;69208;47.502;18.940;2023-05-19T01:46:52;98780.81;;;11.21;100.00
65756;BME280;69208;47.502;18.940;2023-05-19T01:47:58;98779.94;;;11.06;100.00
65756;BME280;69208;47.502;18.940;2023-05-19T01:49:01;98778.25;;;11.15;100.00
65756;BME280;69208;47.502;18.940;2023-05-19T01:50:05;98773.78;;;11.16;100.00
65756;BME280;69208;47.502;18.940;2023-05-19T01:51:08;98777.62;;;11.00;100.00
65756;BME280;69208;47.502;18.940;2023-05-19T01:52:11;98780.94;;;11.10;100.00
65756;BME280;69208;47.502;18.940;2023-05-19T01:53:14;98775.25;;;11.27;100.00
65756;BME280;69208;47.502;18.940;2023-05-19T01:54:17;98777.88;;;11.27;100.00
65756;BME280;69208;47.502;18.940;2023-05-19T01:55:21;98770.59;;;11.19;100.00
65756;BME280;69208;47.502;18.940;2023-05-19T01:56:39;98771.28;;;11.30;100.00
65756;BME280;69208;47.502;18.940;2023-05-19T02:02:17;98775.47;;;11.07;100.00
65756;BME280;69208;47.502;18.940;2023-05-19T02:04:50;98776.75;;;11.09;100.00
65756;BME280;69208;47.502;18.940;2023-05-19T02:07:25;98776.34;;;10.97;100.00
65756;BME280;69208;47.502;18.940;2023-05-19T02:08:54;98775.88;;;10.95;100.00
65756;BME280;69208;47.502;18.940;2023-05-19T02:10:10;98772.13;;;11.01;100.00
65756;BME280;69208;47.502;18.940;2023-05-19T02:11:28;98776.09;;;10.99;100.00
65756;BME280;69208;47.502;18.940;2023-05-19T02:12:35;98770.72;;;10.85;100.00
65756;BME280;69208;47.502;18.940;2023-05-19T02:13:42;98776.63;;;10.72;100.00
65756;BME280;69208;47.502;18.940;2023-05-19T02:14:59;98770.88;;;10.69;100.00
65756;BME280;69208;47.502;18.940;2023-05-19T02:16:04;98772.91;;;11.02;100.00
65756;BME280;69208;47.502;18.940;2023-05-19T02:17:09;98777.59;;;11.05;100.00
65756;BME280;69208;47.502;18.940;2023-05-19T02:18:14;98776.59;;;11.01;100.00
65756;BME280;69208;47.502;18.940;2023-05-19T02:19:21;98779.94;;;11.06;100.00
65756;BME280;69208;47.502;18.940;2023-05-19T02:20:24;98770.28;;;11.02;100.00
65756;BME280;69208;47.502;18.940;2023-05-19T02:21:27;98775.53;;;11.02;100.00
65756;BME280;69208;47.502;18.940;2023-05-19T02:22:30;98773.13;;;11.05;100.00
65756;BME280;69208;47.502;18.940;2023-05-19T02:23:33;98776.25;;;11.07;100.00
65756;BME280;69208;47.502;18.940;2023-05-19T02:24:36;98772.84;;;11.07;100.00
65756;BME280;69208;47.502;18.940;2023-05-19T02:25:39;98772.38;;;11.00;100.00
65756;BME280;69208;47.502;18.940;2023-05-19T02:26:42;98777.59;;;11.05;100.00
65756;BME280;69208;47.502;18.940;2023-05-19T02:27:45;98772.38;;;11.00;100.00
65756;BME280;69208;47.502;18.940;2023-05-19T02:28:50;98768.22;;;10.99;100.00
65756;BME280;69208;47.502;18.940;2023-05-19T02:29:53;98777.41;;;10.96;100.00
65756;BME280;69208;47.502;18.940;2023-05-19T02:30:56;98770.09;;;10.93;100.00
65756;BME280;69208;47.502;18.940;2023-05-19T02:32:00;98770.41;;;10.91;100.00
65756;BME280;69208;47.502;18.940;2023-05-19T02:33:03;98771.94;;;10.92;100.00
65756;BME280;69208;47.502;18.940;2023-05-19T02:34:08;98767.16;;;11.00;100.00
65756;BME280;69208;47.502;18.940;2023-05-19T02:35:12;98774.69;;;11.06;100.00
65756;BME280;69208;47.502;18.940;2023-05-19T02:36:15;98774.97;;;11.05;100.00
65756;BME280;69208;47.502;18.940;2023-05-19T02:37:17;98774.75;;;11.01;100.00
65756;BME280;69208;47.502;18.940;2023-05-19T02:38:20;98781.31;;;10.99;100.00
65756;BME280;69208;47.502;18.940;2023-05-19T02:39:23;98772.63;;;11.03;100.00
65756;BME280;69208;47.502;18.940;2023-05-19T02:40:26;98771.50;;;11.09;100.00
65756;BME280;69208;47.502;18.940;2023-05-19T02:41:29;98768.91;;;11.09;100.00
65756;BME280;69208;47.502;18.940;2023-05-19T02:42:32;98771.19;;;10.92;100.00
65756;BME280;69208;47.502;18.940;2023-05-19T02:43:35;98772.16;;;10.96;100.00
65756;BME280;69208;47.502;18.940;2023-05-19T02:44:38;98777.41;;;10.96;100.00
65756;BME280;69208;47.502;18.940;2023-05-19T02:45:41;98766.41;;;10.94;100.00
65756;BME280;69208;47.502;18.940;2023-05-19T02:46:44;98777.62;;;11.00;100.00
65756;BME280;69208;47.502;18.940;2023-05-19T02:47:47;98770.41;;;10.91;100.00
65756;BME280;69208;47.502;18.940;2023-05-19T02:48:51;98767.28;;;10.89;100.00
65756;BME280;69208;47.502;18.940;2023-05-19T02:49:54;98760.34;;;10.99;100.00
65756;BME280;69208;47.502;18.940;2023-05-19T02:50:57;98764.31;;;10.96;100.00
65756;BME280;69208;47.502;18.940;2023-05-19T02:52:03;98765.72;;;10.88;100.00
65756;BME280;69208;47.502;18.940;2023-05-19T02:53:07;98766.50;;;10.89;100.00
65756;BME280;69208;47.502;18.940;2023-05-19T02:54:10;98765.16;;;10.91;100.00
65756;BME280;69208;47.502;18.940;2023-05-19T02:55:12;98764.59;;;10.95;100.00
65756;BME280;69208;47.502;18.940;2023-05-19T02:56:18;98768.03;;;10.90;100.00
65756;BME280;69208;47.502;18.940;2023-05-19T02:57:22;98756.19;;;10.98;100.00
65756;BME280;69208;47.502;18.940;2023-05-19T02:58:25;98770.88;;;10.93;100.00
65756;BME280;69208;47.502;18.940;2023-05-19T02:59:28;98768.47;;;10.97;100.00
65756;BME280;69208;47.502;18.940;2023-05-19T03:00:31;98771.09;;;10.97;100.00
65756;BME280;69208;47.502;18.940;2023-05-19T03:01:34;98771.56;;;10.80;100.00
65756;BME280;69208;47.502;18.940;2023-05-19T03:02:39;98765.91;;;10.68;100.00
65756;BME280;69208;47.502;18.940;2023-05-19T03:03:43;98775.41;;;10.88;100.00
65756;BME280;69208;47.502;18.940;2023-05-19T03:04:46;98776.84;;;10.99;100.00
65756;BME280;69208;47.502;18.940;2023-05-19T03:05:49;98775.13;;;10.65;100.00
65756;BME280;69208;47.502;18.940;2023-05-19T03:06:52;98771.19;;;10.63;100.00
65756;BME280;69208;47.502;18.940;2023-05-19T03:07:55;98775.56;;;10.73;100.00
65756;BME280;69208;47.502;18.940;2023-05-19T03:08:58;98780.72;;;10.83;100.00
65756;BME280;69208;47.502;18.940;2023-05-19T03:10:01;98777.06;;;10.79;100.00
65756;BME280;69208;47.502;18.940;2023-05-19T03:11:08;98774.44;;;10.79;100.00
65756;BME280;69208;47.502;18.940;2023-05-19T03:12:11;98779.19;;;10.77;100.00
65756;BME280;69208;47.502;18.940;2023-05-19T03:13:14;98776.59;;;10.77;100.00
65756;BME280;69208;47.502;18.940;2023-05-19T03:14:18;98776.34;;;10.73;100.00
65756;BME280;69208;47.502;18.940;2023-05-19T03:15:25;98773.72;;;10.73;100.00
65756;BME280;69208;47.502;18.940;2023-05-19T03:16:28;98775.59;;;10.67;100.00
65756;BME280;69208;47.502;18.940;2023-05-19T03:17:31;98774.50;;;10.74;100.00
65756;BME280;69208;47.502;18.940;2023-05-19T03:18:35;98782.91;;;10.70;100.00
65756;BME280;69208;47.502;18.940;2023-05-19T03:19:38;98783.47;;;10.67;100.00
65756;BME280;69208;47.502;18.940;2023-05-19T03:20:41;98778.72;;;10.69;100.00
65756;BME280;69208;47.502;18.940;2023-05-19T03:21:46;98775.56;;;10.73;100.00
65756;BME280;69208;47.502;18.940;2023-05-19T03:22:49;98777.62;;;10.76;100.00
65756;BME280;69208;47.502;18.940;2023-05-19T03:23:52;98776.63;;;10.72;100.00
65756;BME280;69208;47.502;18.940;2023-05-19T03:24:56;98782.53;;;10.82;100.00
65756;BME280;69208;47.502;18.940;2023-05-19T03:25:59;98786.72;;;10.83;100.00
65756;BME280;69208;47.502;18.940;2023-05-19T03:27:03;98783.59;;;10.81;100.00
65756;BME280;69208;47.502;18.940;2023-05-19T03:28:07;98786.22;;;10.81;100.00
65756;BME280;69208;47.502;18.940;2023-05-19T03:29:10;98783.38;;;10.78;100.00
65756;BME280;69208;47.502;18.940;2023-05-19T03:30:13;98779.91;;;10.82;100.00
65756;BME280;69208;47.502;18.940;2023-05-19T03:31:16;98780.97;;;10.81;100.00
65756;BME280;69208;47.502;18.940;2023-05-19T03:32:19;98779.47;;;10.75;100.00
65756;BME280;69208;47.502;18.940;2023-05-19T03:33:22;98779.47;;;10.75;100.00
65756;BME280;69208;47.502;18.940;2023-05-19T03:34:26;98780.81;;;10.73;100.00
65756;BME280;69208;47.502;18.940;2023-05-19T03:35:28;98781.09;;;10.71;100.00
65756;BME280;69208;47.502;18.940;2023-05-19T03:36:31;98782.53;;;10.82;100.00
65756;BME280;69208;47.502;18.940;2023-05-19T03:37:34;98781.19;;;10.85;100.00
65756;BME280;69208;47.502;18.940;2023-05-19T03:38:37;98779.13;;;10.82;100.00
65756;BME280;69208;47.502;18.940;2023-05-19T03:39:40;98778.56;;;10.85;100.00
65756;BME280;69208;47.502;18.940;2023-05-19T03:40:43;98781.81;;;10.77;100.00
65756;BME280;69208;47.502;18.940;2023-05-19T03:41:46;98780.25;;;10.76;100.00
65756;BME280;69208;47.502;18.940;2023-05-19T03:42:49;98779.13;;;10.82;100.00
65756;BME280;69208;47.502;18.940;2023-05-19T03:43:52;98784.09;;;10.83;100.00
65756;BME280;69208;47.502;18.940;2023-05-19T03:44:55;98783.03;;;10.84;100.00
65756;BME280;69208;47.502;18.940;2023-05-19T03:45:57;98780.25;;;10.76;100.00
65756;BME280;69208;47.502;18.940;2023-05-19T03:47:00;98780.72;;;10.54;100.00
65756;BME280;69208;47.502;18.940;2023-05-19T03:48:04;98783.16;;;10.45;100.00
65756;BME280;69208;47.502;18.940;2023-05-19T03:49:07;98772.72;;;10.40;100.00
65756;BME280;69208;47.502;18.940;2023-05-19T03:50:10;98777.94;;;10.40;100.00
65756;BME280;69208;47.502;18.940;2023-05-19T03:51:13;98773.06;;;10.62;100.00
65756;BME280;69208;47.502;18.940;2023-05-19T03:52:16;98771.81;;;10.79;100.00
65756;BME280;69208;47.502;18.940;2023-05-19T03:53:18;98775.19;;;10.84;100.00
65756;BME280;69208;47.502;18.940;2023-05-19T03:54:22;98778.88;;;10.83;100.00
65756;BME280;69208;47.502;18.940;2023-05-19T03:55:25;98770.41;;;10.91;100.00
65756;BME280;69208;47.502;18.940;2023-05-19T03:56:28;98774.28;;;10.94;100.00
65756;BME280;69208;47.502;18.940;2023-05-19T03:57:31;98773.81;;;10.92;100.00
65756;BME280;69208;47.502;18.940;2023-05-19T03:58:35;98784.00;;;10.93;100.00
65756;BME280;69208;47.502;18.940;2023-05-19T03:59:40;98782.31;;;11.03;100.00
65756;BME280;69208;47.502;18.940;2023-05-19T04:00:45;98783.03;;;11.08;100.00
65756;BME280;69208;47.502;18.940;2023-05-19T04:01:48;98796.87;;;11.14;100.00
65756;BME280;69208;47.502;18.940;2023-05-19T04:02:51;98786.34;;;11.19;100.00
65756;BME280;69208;47.502;18.940;2023-05-19T04:03:54;98782.69;;;11.15;100.00
65756;BME280;69208;47.502;18.940;2023-05-19T04:04:57;98785.31;;;11.15;100.00
65756;BME280;69208;47.502;18.940;2023-05-19T04:06:00;98788.25;;;11.13;100.00
65756;BME280;69208;47.502;18.940;2023-05-19T04:07:03;98786.69;;;11.12;100.00
65756;BME280;69208;47.502;18.940;2023-05-19T04:08:06;98783.56;;;11.10;100.00
65756;BME280;69208;47.502;18.940;2023-05-19T04:09:12;98785.66;;;11.08;100.00
65756;BME280;69208;47.502;18.940;2023-05-19T04:10:16;98787.72;;;11.11;100.00
65756;BME280;69208;47.502;18.940;2023-05-19T04:11:18;98790.56;;;11.15;100.00
65756;BME280;69208;47.502;18.940;2023-05-19T04:12:22;98793.47;;;11.13;100.00
65756;BME280;69208;47.502;18.940;2023-05-19T04:13:25;98791.97;;;11.07;100.00
65756;BME280;69208;47.502;18.940;2023-05-19T04:14:28;98797.94;;;11.13;100.00
65756;BME280;69208;47.502;18.940;2023-05-19T04:15:31;98793.44;;;11.19;100.00
65756;BME280;69208;47.502;18.940;2023-05-19T04:16:34;98794.72;;;11.21;100.00
65756;BME280;69208;47.502;18.940;2023-05-19T04:17:37;98794.25;;;11.14;100.00
65756;BME280;69208;47.502;18.940;2023-05-19T04:18:40;98795.94;;;11.05;100.00
65756;BME280;69208;47.502;18.940;2023-05-19T04:19:44;98798.00;;;11.08;100.00
65756;BME280;69208;47.502;18.940;2023-05-19T04:20:47;98800.84;;;11.11;100.00
65756;BME280;69208;47.502;18.940;2023-05-19T04:21:50;98799.63;;;11.04;100.00
65756;BME280;69208;47.502;18.940;2023-05-19T04:22:52;98796.44;;;11.07;100.00
65756;BME280;69208;47.502;18.940;2023-05-19T04:23:55;98799.09;;;11.26;100.00
65756;BME280;69208;47.502;18.940;2023-05-19T04:25:00;98794.16;;;11.24;100.00
65756;BME280;69208;47.502;18.940;2023-05-19T04:26:05;98804.56;;;11.29;100.00
65756;BME280;69208;47.502;18.940;2023-05-19T04:27:08;98799.00;;;11.36;100.00
65756;BME280;69208;47.502;18.940;2023-05-19T04:28:14;98800.59;;;11.32;100.00
65756;BME280;69208;47.502;18.940;2023-05-19T04:29:17;98796.78;;;11.24;100.00
65756;BME280;69208;47.502;18.940;2023-05-19T04:30:20;98796.69;;;11.29;100.00
65756;BME280;69208;47.502;18.940;2023-05-19T04:31:24;98804.94;;;11.42;100.00
65756;BME280;69208;47.502;18.940;2023-05-19T04:32:27;98799.69;;;11.42;100.00
65756;BME280;69208;47.502;18.940;2023-05-19T04:33:30;98802.78;;;11.49;100.00
65756;BME280;69208;47.502;18.940;2023-05-19T04:34:36;98809.16;;;11.61;100.00
65756;BME280;69208;47.502;18.940;2023-05-19T04:35:41;98809.69;;;11.64;100.00
65756;BME280;69208;47.502;18.940;2023-05-19T04:36:45;98807.81;;;11.64;100.00
65756;BME280;69208;47.502;18.940;2023-05-19T04:37:50;98800.56;;;11.56;100.00
65756;BME280;69208;47.502;18.940;2023-05-19T04:38:55;98817.41;;;11.55;100.00
65756;BME280;69208;47.502;18.940;2023-05-19T04:40:04;98814.34;;;11.48;100.00
65756;BME280;69208;47.502;18.940;2023-05-19T04:41:07;98811.44;;;11.68;100.00
65756;BME280;69208;47.502;18.940;2023-05-19T04:42:13;98813.94;;;11.78;100.00
65756;BME280;69208;47.502;18.940;2023-05-19T04:43:20;98815.59;;;11.74;100.00
65756;BME280;69208;47.502;18.940;2023-05-19T04:44:23;98816.75;;;11.87;100.00
65756;BME280;69208;47.502;18.940;2023-05-19T04:45:26;98819.00;;;11.94;100.00
65756;BME280;69208;47.502;18.940;2023-05-19T04:46:29;98822.91;;;11.96;100.00
65756;BME280;69208;47.502;18.940;2023-05-19T04:47:32;98815.44;;;12.03;100.00
65756;BME280;69208;47.502;18.940;2023-05-19T04:48:38;98819.41;;;12.20;100.00
65756;BME280;69208;47.502;18.940;2023-05-19T04:49:44;98821.91;;;12.11;100.00
65756;BME280;69208;47.502;18.940;2023-05-19T04:50:47;98823.25;;;12.09;100.00
65756;BME280;69208;47.502;18.940;2023-05-19T04:51:51;98832.63;;;12.15;100.00
65756;BME280;69208;47.502;18.940;2023-05-19T04:52:57;98820.91;;;12.26;100.00
65756;BME280;69208;47.502;18.940;2023-05-19T04:54:00;98824.59;;;12.25;100.00
65756;BME280;69208;47.502;18.940;2023-05-19T04:55:04;98822.25;;;12.56;100.00
65756;BME280;69208;47.502;18.940;2023-05-19T04:56:07;98824.56;;;12.77;100.00
65756;BME280;69208;47.502;18.940;2023-05-19T04:57:10;98821.16;;;12.76;100.00
65756;BME280;69208;47.502;18.940;2023-05-19T04:58:13;98823.06;;;12.70;100.00
65756;BME280;69208;47.502;18.940;2023-05-19T04:59:16;98830.31;;;12.46;100.00
65756;BME280;69208;47.502;18.940;2023-05-19T05:00:20;98831.88;;;12.47;100.00
65756;BME280;69208;47.502;18.940;2023-05-19T05:01:23;98834.09;;;12.40;100.00
65756;BME280;69208;47.502;18.940;2023-05-19T05:02:27;98827.41;;;12.47;100.00
65756;BME280;69208;47.502;18.940;2023-05-19T05:03:30;98815.72;;;12.53;100.00
65756;BME280;69208;47.502;18.940;2023-05-19T05:04:36;98817.78;;;12.57;100.00
65756;BME280;69208;47.502;18.940;2023-05-19T05:05:42;98820.13;;;12.58;100.00
65756;BME280;69208;47.502;18.940;2023-05-19T05:06:45;98820.13;;;12.58;100.00
65756;BME280;69208;47.502;18.940;2023-05-19T05:07:49;98820.06;;;12.63;100.00
65756;BME280;69208;47.502;18.940;2023-05-19T05:08:52;98823.69;;;12.95;100.00
65756;BME280;69208;47.502;18.940;2023-05-19T05:09:55;98826.72;;;13.16;100.00
65756;BME280;69208;47.502;18.940;2023-05-19T05:10:59;98825.25;;;13.10;100.00
65756;BME280;69208;47.502;18.940;2023-05-19T05:12:02;98828.88;;;13.14;100.00
65756;BME280;69208;47.502;18.940;2023-05-19T05:13:05;98824.31;;;13.19;100.00
65756;BME280;69208;47.502;18.940;2023-05-19T05:14:08;98825.50;;;13.27;100.00
65756;BME280;69208;47.502;18.940;2023-05-19T05:15:11;98831.25;;;13.29;100.00
65756;BME280;69208;47.502;18.940;2023-05-19T05:16:15;98826.38;;;13.36;100.00
65756;BME280;69208;47.502;18.940;2023-05-19T05:17:18;98821.69;;;13.33;100.00
65756;BME280;69208;47.502;18.940;2023-05-19T05:18:22;98827.22;;;13.18;100.00
65756;BME280;69208;47.502;18.940;2023-05-19T05:19:25;98823.16;;;13.26;100.00
65756;BME280;69208;47.502;18.940;2023-05-19T05:20:28;98828.81;;;13.33;100.00
65756;BME280;69208;47.502;18.940;2023-05-19T05:21:32;98828.31;;;13.31;100.00
65756;BME280;69208;47.502;18.940;2023-05-19T05:22:35;98831.34;;;13.38;100.00
65756;BME280;69208;47.502;18.940;2023-05-19T05:23:40;98837.28;;;13.43;100.00
65756;BME280;69208;47.502;18.940;2023-05-19T05:24:43;98833.75;;;13.48;100.00
65756;BME280;69208;47.502;18.940;2023-05-19T05:25:46;98839.25;;;13.52;100.00
65756;BME280;69208;47.502;18.940;2023-05-19T05:26:50;98838.84;;;13.45;100.00
65756;BME280;69208;47.502;18.940;2023-05-19T05:27:53;98845.28;;;13.38;100.00
65756;BME280;69208;47.502;18.940;2023-05-19T05:28:56;98844.88;;;13.45;100.00
65756;BME280;69208;47.502;18.940;2023-05-19T05:29:59;98844.78;;;13.50;100.00
65756;BME280;69208;47.502;18.940;2023-05-19T05:31:02;98839.25;;;13.38;100.00
65756;BME280;69208;47.502;18.940;2023-05-19T05:32:05;98844.09;;;13.45;100.00
65756;BME280;69208;47.502;18.940;2023-05-19T05:33:08;98835.94;;;13.46;100.00
65756;BME280;69208;47.502;18.940;2023-05-19T05:34:12;98839.25;;;13.38;100.00
65756;BME280;69208;47.502;18.940;2023-05-19T05:35:15;98841.87;;;13.38;100.00
65756;BME280;69208;47.502;18.940;2023-05-19T05:36:18;98836.13;;;13.50;100.00
65756;BME280;69208;47.502;18.940;2023-05-19T05:37:20;98834.53;;;13.62;100.00
65756;BME280;69208;47.502;18.940;2023-05-19T05:38:24;98839.03;;;13.48;100.00
65756;BME280;69208;47.502;18.940;2023-05-19T05:39:27;98839.44;;;13.55;100.00
65756;BME280;69208;47.502;18.940;2023-05-19T05:40:30;98840.13;;;13.47;100.00
65756;BME280;69208;47.502;18.940;2023-05-19T05:41:33;98838.16;;;13.67;100.00
65756;BME280;69208;47.502;18.940;2023-05-19T05:42:39;98840.66;;;13.72;100.00
65756;BME280;69208;47.502;18.940;2023-05-19T05:43:42;98835.97;;;13.69;100.00
65756;BME280;69208;47.502;18.940;2023-05-19T05:44:45;98845.16;;;13.71;100.00
65756;BME280;69208;47.502;18.940;2023-05-19T05:45:47;98845.41;;;13.83;100.00